Wednesday, October 17, 2018, 4:08 AM EDT
Back to Local

KTHV, York Airport

Location: Spring Grove, PA, United States Lat: 39.917
Local Time: 4:08 AM EDT ( 8:08 GMT) Lon: -76.883
Time Zone: US/Eastern Elev: 478 ft

Show me the last for .
Show Decoded

2018-10-17 03:53 METAR KTHV 170753Z AUTO 00000KT 10SM CLR 06/05 A3005 RMK AO2 SLP178 T00610050 =
2018-10-17 02:53 METAR KTHV 170653Z AUTO 00000KT 10SM CLR 06/05 A3005 RMK AO2 SLP180 T00610050 =
2018-10-17 01:53 METAR KTHV 170553Z AUTO 00000KT 10SM CLR 06/06 A3006 RMK AO2 SLP184 T00610056
                 10106 20061 58007 =
2018-10-16 23:53 METAR KTHV 170353Z AUTO 25003KT 10SM CLR 10/06 A3008 RMK AO2 SLP190 T01000056 =
2018-10-16 22:53 METAR KTHV 170253Z AUTO 00000KT 10SM CLR 09/06 A3008 RMK AO2 SLP191 T00890056
                 58002 =
2018-10-16 21:53 METAR KTHV 170153Z AUTO 00000KT 10SM CLR 09/06 A3009 RMK AO2 SLP193 T00890056 =
2018-10-16 20:53 METAR KTHV 170053Z AUTO 00000KT 10SM CLR 09/06 A3009 RMK AO2 SLP194 T00940056 =
2018-10-16 19:53 METAR KTHV 162353Z AUTO 00000KT 10SM CLR 09/06 A3009 RMK AO2 SLP193 T00940056
                 10133 20094 56008 =
2018-10-16 18:53 METAR KTHV 162253Z AUTO 20004KT 10SM CLR 10/05 A3010 RMK AO2 SLP194 T01000050 =
2018-10-16 17:53 METAR KTHV 162153Z AUTO 23003KT 10SM CLR 11/04 A3009 RMK AO2 SLP193 T01110039 =
2018-10-16 16:53 METAR KTHV 162053Z AUTO 23005KT 10SM CLR 12/02 A3011 RMK AO2 SLP201 T01220022
                 55013 =
2018-10-16 15:53 METAR KTHV 161953Z AUTO 29006KT 10SM CLR 13/02 A3010 RMK AO2 SLP196 T01280017 =
2018-10-16 14:53 METAR KTHV 161853Z AUTO 28006KT 10SM CLR 13/02 A3012 RMK AO2 SLP201 T01280017 =
2018-10-16 13:53 METAR KTHV 161753Z AUTO 30009KT 10SM CLR 12/02 A3015 RMK AO2 SLP213 T01220017
                 10128 20083 58022 =
2018-10-16 12:53 METAR KTHV 161653Z AUTO 28008KT 270V330 10SM CLR 12/02 A3018 RMK AO2 SLP222
                 T01220022 =
2018-10-16 11:53 METAR KTHV 161553Z AUTO 32009KT 280V340 10SM CLR 12/02 A3021 RMK AO2 SLP233
                 T01170022 =
2018-10-16 10:53 METAR KTHV 161453Z AUTO 33007KT 10SM CLR 10/02 A3022 RMK AO2 SLP236 T01000017
                 50005 =
2018-10-16 09:53 METAR KTHV 161353Z AUTO 34008KT 10SM CLR 09/02 A3022 RMK AO2 SLP237 T00890022 =
2018-10-16 08:53 METAR KTHV 161253Z AUTO 01005KT 10SM CLR 08/03 A3022 RMK AO2 SLP236 T00830028 =
2018-10-16 07:53 METAR KTHV 161153Z AUTO 35005KT 10SM CLR 08/03 A3020 RMK AO2 SLP230 70006
                 T00830033 10133 20083 51020 =
2018-10-16 06:53 METAR KTHV 161053Z AUTO 32007KT 10SM CLR 09/04 A3018 RMK AO2 SLP224 T00890039 =
2018-10-16 05:53 METAR KTHV 160953Z AUTO 31008KT 10SM CLR 09/04 A3017 RMK AO2 SLP221 T00940039 =
2018-10-16 04:53 METAR KTHV 160853Z AUTO 31006KT 10SM CLR 10/05 A3014 RMK AO2 SLP209 T01000050
                 53014 =

Support USWX by starting your Amazon purchase here.